sensor_id;sensor_type;location;lat;lon;timestamp;temperature;humidity
8662;DHT22;29684;47.722;9.388;2022-08-20T00:02:28;17.10;99.90
8662;DHT22;29684;47.722;9.388;2022-08-20T00:05:15;17.10;99.90
8662;DHT22;29684;47.722;9.388;2022-08-20T00:07:59;17.00;99.90
8662;DHT22;29684;47.722;9.388;2022-08-20T00:10:44;17.10;99.90
8662;DHT22;29684;47.722;9.388;2022-08-20T00:13:33;17.00;99.90
8662;DHT22;29684;47.722;9.388;2022-08-20T00:16:20;17.00;99.90
8662;DHT22;29684;47.722;9.388;2022-08-20T00:19:06;17.00;99.90
8662;DHT22;29684;47.722;9.388;2022-08-20T00:21:51;17.00;99.90
8662;DHT22;29684;47.722;9.388;2022-08-20T00:24:34;16.90;99.90
8662;DHT22;29684;47.722;9.388;2022-08-20T00:27:19;16.90;99.90
8662;DHT22;29684;47.722;9.388;2022-08-20T00:30:13;17.00;99.90
8662;DHT22;29684;47.722;9.388;2022-08-20T00:33:03;17.00;99.90
8662;DHT22;29684;47.722;9.388;2022-08-20T00:35:51;16.90;99.90
8662;DHT22;29684;47.722;9.388;2022-08-20T00:38:37;16.90;99.90
8662;DHT22;29684;47.722;9.388;2022-08-20T00:41:24;17.00;99.90
8662;DHT22;29684;47.722;9.388;2022-08-20T00:44:18;16.90;99.90
8662;DHT22;29684;47.722;9.388;2022-08-20T00:47:03;16.90;99.90
8662;DHT22;29684;47.722;9.388;2022-08-20T00:49:49;16.80;99.90
8662;DHT22;29684;47.722;9.388;2022-08-20T00:52:34;16.80;99.90
8662;DHT22;29684;47.722;9.388;2022-08-20T00:55:22;16.80;99.90
8662;DHT22;29684;47.722;9.388;2022-08-20T00:58:07;16.90;99.90
8662;DHT22;29684;47.722;9.388;2022-08-20T01:00:52;16.80;99.90
8662;DHT22;29684;47.722;9.388;2022-08-20T01:03:37;16.80;99.90
8662;DHT22;29684;47.722;9.388;2022-08-20T01:06:23;16.70;99.90
8662;DHT22;29684;47.722;9.388;2022-08-20T01:09:08;16.70;99.90
8662;DHT22;29684;47.722;9.388;2022-08-20T01:11:53;16.70;99.90
8662;DHT22;29684;47.722;9.388;2022-08-20T01:14:37;16.60;99.90
8662;DHT22;29684;47.722;9.388;2022-08-20T01:17:31;16.60;99.90
8662;DHT22;29684;47.722;9.388;2022-08-20T01:20:22;16.70;99.90
8662;DHT22;29684;47.722;9.388;2022-08-20T01:26:30;16.50;99.90
8662;DHT22;29684;47.722;9.388;2022-08-20T01:29:21;16.50;99.90
8662;DHT22;29684;47.722;9.388;2022-08-20T01:32:06;16.50;99.90
8662;DHT22;29684;47.722;9.388;2022-08-20T01:34:50;16.50;99.90
8662;DHT22;29684;47.722;9.388;2022-08-20T01:37:34;16.50;99.90
8662;DHT22;29684;47.722;9.388;2022-08-20T01:40:37;16.40;99.90
8662;DHT22;29684;47.722;9.388;2022-08-20T01:43:27;16.50;99.90
8662;DHT22;29684;47.722;9.388;2022-08-20T01:46:12;16.50;99.90
8662;DHT22;29684;47.722;9.388;2022-08-20T01:48:58;16.60;99.90
8662;DHT22;29684;47.722;9.388;2022-08-20T01:51:42;16.70;99.90
8662;DHT22;29684;47.722;9.388;2022-08-20T01:54:27;16.70;99.90
8662;DHT22;29684;47.722;9.388;2022-08-20T01:57:16;16.70;99.90
8662;DHT22;29684;47.722;9.388;2022-08-20T02:00:06;16.70;99.90
8662;DHT22;29684;47.722;9.388;2022-08-20T02:02:51;16.70;99.90
8662;DHT22;29684;47.722;9.388;2022-08-20T02:05:36;16.70;99.90
8662;DHT22;29684;47.722;9.388;2022-08-20T02:08:21;16.60;99.90
8662;DHT22;29684;47.722;9.388;2022-08-20T02:11:05;16.50;99.90
8662;DHT22;29684;47.722;9.388;2022-08-20T02:13:52;16.50;99.90
8662;DHT22;29684;47.722;9.388;2022-08-20T02:16:41;16.40;99.90
8662;DHT22;29684;47.722;9.388;2022-08-20T02:19:36;16.40;99.90
8662;DHT22;29684;47.722;9.388;2022-08-20T02:25:27;16.40;99.90
8662;DHT22;29684;47.722;9.388;2022-08-20T02:28:17;16.40;99.90
8662;DHT22;29684;47.722;9.388;2022-08-20T02:31:02;16.40;99.90
8662;DHT22;29684;47.722;9.388;2022-08-20T02:33:51;16.30;99.90
8662;DHT22;29684;47.722;9.388;2022-08-20T02:36:36;16.30;99.90
8662;DHT22;29684;47.722;9.388;2022-08-20T02:39:21;16.30;99.90
8662;DHT22;29684;47.722;9.388;2022-08-20T02:42:05;16.30;99.90
8662;DHT22;29684;47.722;9.388;2022-08-20T02:44:49;16.20;99.90
8662;DHT22;29684;47.722;9.388;2022-08-20T02:47:34;16.20;99.90
8662;DHT22;29684;47.722;9.388;2022-08-20T02:50:19;16.20;99.90
8662;DHT22;29684;47.722;9.388;2022-08-20T02:53:04;16.20;99.90
8662;DHT22;29684;47.722;9.388;2022-08-20T02:55:49;16.20;99.90
8662;DHT22;29684;47.722;9.388;2022-08-20T02:58:34;16.20;99.90
8662;DHT22;29684;47.722;9.388;2022-08-20T03:01:18;16.20;99.90
8662;DHT22;29684;47.722;9.388;2022-08-20T03:04:03;16.20;99.90
8662;DHT22;29684;47.722;9.388;2022-08-20T03:06:47;16.20;99.90
8662;DHT22;29684;47.722;9.388;2022-08-20T03:09:32;16.10;99.90
8662;DHT22;29684;47.722;9.388;2022-08-20T03:12:16;16.20;99.90
8662;DHT22;29684;47.722;9.388;2022-08-20T03:15:00;16.10;99.90
8662;DHT22;29684;47.722;9.388;2022-08-20T03:17:44;16.10;99.90
8662;DHT22;29684;47.722;9.388;2022-08-20T03:20:29;16.10;99.90
8662;DHT22;29684;47.722;9.388;2022-08-20T03:23:14;16.10;99.90
8662;DHT22;29684;47.722;9.388;2022-08-20T03:25:59;16.00;99.90
8662;DHT22;29684;47.722;9.388;2022-08-20T03:28:44;16.10;99.90
8662;DHT22;29684;47.722;9.388;2022-08-20T03:31:28;16.00;99.90
8662;DHT22;29684;47.722;9.388;2022-08-20T03:34:12;16.00;99.90
8662;DHT22;29684;47.722;9.388;2022-08-20T03:36:57;16.00;99.90
8662;DHT22;29684;47.722;9.388;2022-08-20T03:39:41;16.10;99.90
8662;DHT22;29684;47.722;9.388;2022-08-20T03:42:26;16.20;99.90
8662;DHT22;29684;47.722;9.388;2022-08-20T03:45:11;16.10;99.90
8662;DHT22;29684;47.722;9.388;2022-08-20T03:47:56;16.10;99.90
8662;DHT22;29684;47.722;9.388;2022-08-20T03:50:41;16.10;99.90
8662;DHT22;29684;47.722;9.388;2022-08-20T03:53:27;16.10;99.90
8662;DHT22;29684;47.722;9.388;2022-08-20T03:56:15;16.20;99.90
8662;DHT22;29684;47.722;9.388;2022-08-20T03:59:00;16.20;99.90
8662;DHT22;29684;47.722;9.388;2022-08-20T04:01:44;16.20;99.90
8662;DHT22;29684;47.722;9.388;2022-08-20T04:04:28;16.10;99.90
8662;DHT22;29684;47.722;9.388;2022-08-20T04:07:19;16.00;99.90
8662;DHT22;29684;47.722;9.388;2022-08-20T04:10:10;16.00;99.90
8662;DHT22;29684;47.722;9.388;2022-08-20T04:12:54;15.90;99.90
8662;DHT22;29684;47.722;9.388;2022-08-20T04:15:39;15.90;99.90
8662;DHT22;29684;47.722;9.388;2022-08-20T04:18:25;16.00;99.90
8662;DHT22;29684;47.722;9.388;2022-08-20T04:21:09;16.10;99.90
8662;DHT22;29684;47.722;9.388;2022-08-20T04:23:53;16.10;99.90
8662;DHT22;29684;47.722;9.388;2022-08-20T04:26:38;16.10;99.90
8662;DHT22;29684;47.722;9.388;2022-08-20T04:29:22;16.00;99.90
8662;DHT22;29684;47.722;9.388;2022-08-20T04:32:09;16.00;99.90
8662;DHT22;29684;47.722;9.388;2022-08-20T04:34:53;16.10;99.90
8662;DHT22;29684;47.722;9.388;2022-08-20T04:37:38;16.00;99.90
8662;DHT22;29684;47.722;9.388;2022-08-20T04:40:22;15.90;99.90
8662;DHT22;29684;47.722;9.388;2022-08-20T04:43:30;15.80;99.90
8662;DHT22;29684;47.722;9.388;2022-08-20T04:46:16;15.80;99.90
8662;DHT22;29684;47.722;9.388;2022-08-20T04:49:01;15.80;99.90
8662;DHT22;29684;47.722;9.388;2022-08-20T04:51:46;15.80;99.90
8662;DHT22;29684;47.722;9.388;2022-08-20T04:54:30;15.80;99.90
8662;DHT22;29684;47.722;9.388;2022-08-20T04:57:15;15.70;99.90
8662;DHT22;29684;47.722;9.388;2022-08-20T04:59:59;15.70;99.90
8662;DHT22;29684;47.722;9.388;2022-08-20T05:02:43;15.70;99.90
8662;DHT22;29684;47.722;9.388;2022-08-20T05:05:28;15.70;99.90
8662;DHT22;29684;47.722;9.388;2022-08-20T05:08:15;15.80;99.90
8662;DHT22;29684;47.722;9.388;2022-08-20T05:10:59;15.80;99.90
8662;DHT22;29684;47.722;9.388;2022-08-20T05:13:44;15.80;99.90
8662;DHT22;29684;47.722;9.388;2022-08-20T05:16:28;15.90;99.90
8662;DHT22;29684;47.722;9.388;2022-08-20T05:19:12;15.90;99.90
8662;DHT22;29684;47.722;9.388;2022-08-20T05:21:56;16.00;99.90
8662;DHT22;29684;47.722;9.388;2022-08-20T05:24:40;16.10;99.90
8662;DHT22;29684;47.722;9.388;2022-08-20T05:27:24;16.10;99.90
8662;DHT22;29684;47.722;9.388;2022-08-20T05:30:10;16.20;99.90
8662;DHT22;29684;47.722;9.388;2022-08-20T05:32:55;16.30;99.90
8662;DHT22;29684;47.722;9.388;2022-08-20T05:35:40;16.40;99.90
8662;DHT22;29684;47.722;9.388;2022-08-20T05:38:26;16.50;99.90
8662;DHT22;29684;47.722;9.388;2022-08-20T05:41:10;16.50;99.90
8662;DHT22;29684;47.722;9.388;2022-08-20T05:43:56;16.60;99.90
8662;DHT22;29684;47.722;9.388;2022-08-20T05:46:42;16.60;99.90
8662;DHT22;29684;47.722;9.388;2022-08-20T05:49:27;16.60;99.90
8662;DHT22;29684;47.722;9.388;2022-08-20T05:52:11;16.60;99.90
8662;DHT22;29684;47.722;9.388;2022-08-20T05:54:56;16.70;99.90
8662;DHT22;29684;47.722;9.388;2022-08-20T05:57:40;16.70;99.90
8662;DHT22;29684;47.722;9.388;2022-08-20T06:00:25;16.80;99.90
8662;DHT22;29684;47.722;9.388;2022-08-20T06:03:09;16.90;99.90
8662;DHT22;29684;47.722;9.388;2022-08-20T06:06:12;16.90;99.90
8662;DHT22;29684;47.722;9.388;2022-08-20T06:08:56;17.00;99.90
8662;DHT22;29684;47.722;9.388;2022-08-20T06:11:40;17.10;99.90
8662;DHT22;29684;47.722;9.388;2022-08-20T06:14:25;17.20;99.90
8662;DHT22;29684;47.722;9.388;2022-08-20T06:17:15;17.40;99.90
8662;DHT22;29684;47.722;9.388;2022-08-20T06:20:02;17.50;99.90
8662;DHT22;29684;47.722;9.388;2022-08-20T06:22:48;17.40;99.90
8662;DHT22;29684;47.722;9.388;2022-08-20T06:25:33;17.90;99.90
8662;DHT22;29684;47.722;9.388;2022-08-20T06:28:18;17.40;99.90
8662;DHT22;29684;47.722;9.388;2022-08-20T06:31:02;17.40;99.90
8662;DHT22;29684;47.722;9.388;2022-08-20T06:33:47;17.40;99.90
8662;DHT22;29684;47.722;9.388;2022-08-20T06:36:34;17.40;99.90
8662;DHT22;29684;47.722;9.388;2022-08-20T06:39:18;17.60;99.90
8662;DHT22;29684;47.722;9.388;2022-08-20T06:42:02;17.60;99.90
8662;DHT22;29684;47.722;9.388;2022-08-20T06:44:48;17.60;99.90
8662;DHT22;29684;47.722;9.388;2022-08-20T06:47:33;17.70;99.90
8662;DHT22;29684;47.722;9.388;2022-08-20T06:50:30;17.70;99.90
8662;DHT22;29684;47.722;9.388;2022-08-20T06:53:19;17.80;99.90
8662;DHT22;29684;47.722;9.388;2022-08-20T06:56:04;17.80;99.90
8662;DHT22;29684;47.722;9.388;2022-08-20T06:58:49;17.70;99.90
8662;DHT22;29684;47.722;9.388;2022-08-20T07:01:33;17.70;99.90
8662;DHT22;29684;47.722;9.388;2022-08-20T07:04:18;17.70;99.90
8662;DHT22;29684;47.722;9.388;2022-08-20T07:07:03;17.80;99.90
8662;DHT22;29684;47.722;9.388;2022-08-20T07:09:47;17.90;99.90
8662;DHT22;29684;47.722;9.388;2022-08-20T07:12:31;18.00;99.90
8662;DHT22;29684;47.722;9.388;2022-08-20T07:15:21;18.10;99.90
8662;DHT22;29684;47.722;9.388;2022-08-20T07:18:06;18.20;99.90
8662;DHT22;29684;47.722;9.388;2022-08-20T07:20:50;18.20;99.90
8662;DHT22;29684;47.722;9.388;2022-08-20T07:23:38;18.20;99.90
8662;DHT22;29684;47.722;9.388;2022-08-20T07:26:22;18.20;99.90
8662;DHT22;29684;47.722;9.388;2022-08-20T07:29:06;18.30;99.90
8662;DHT22;29684;47.722;9.388;2022-08-20T07:31:51;18.40;99.90
8662;DHT22;29684;47.722;9.388;2022-08-20T07:34:54;18.40;99.90
8662;DHT22;29684;47.722;9.388;2022-08-20T07:37:41;18.50;99.90
8662;DHT22;29684;47.722;9.388;2022-08-20T07:40:29;18.50;99.90
8662;DHT22;29684;47.722;9.388;2022-08-20T07:43:14;18.50;99.90
8662;DHT22;29684;47.722;9.388;2022-08-20T07:46:00;18.60;99.90
8662;DHT22;29684;47.722;9.388;2022-08-20T07:48:47;18.90;99.90
8662;DHT22;29684;47.722;9.388;2022-08-20T07:51:32;19.10;99.90
8662;DHT22;29684;47.722;9.388;2022-08-20T07:54:17;19.00;99.90
8662;DHT22;29684;47.722;9.388;2022-08-20T07:57:02;19.10;99.90
8662;DHT22;29684;47.722;9.388;2022-08-20T07:59:47;19.30;99.90
8662;DHT22;29684;47.722;9.388;2022-08-20T08:02:32;19.70;99.90
8662;DHT22;29684;47.722;9.388;2022-08-20T08:05:17;20.00;99.90
8662;DHT22;29684;47.722;9.388;2022-08-20T08:08:01;20.10;99.90
8662;DHT22;29684;47.722;9.388;2022-08-20T08:10:49;20.10;99.90
8662;DHT22;29684;47.722;9.388;2022-08-20T08:13:37;19.90;99.90
8662;DHT22;29684;47.722;9.388;2022-08-20T08:16:21;20.00;99.90
8662;DHT22;29684;47.722;9.388;2022-08-20T08:19:07;20.00;99.90
8662;DHT22;29684;47.722;9.388;2022-08-20T08:21:57;20.10;99.90
8662;DHT22;29684;47.722;9.388;2022-08-20T08:24:42;20.20;99.90
8662;DHT22;29684;47.722;9.388;2022-08-20T08:27:30;20.10;99.90
8662;DHT22;29684;47.722;9.388;2022-08-20T08:30:18;20.30;99.90
8662;DHT22;29684;47.722;9.388;2022-08-20T08:33:03;20.40;99.90
8662;DHT22;29684;47.722;9.388;2022-08-20T08:36:13;20.50;99.90
8662;DHT22;29684;47.722;9.388;2022-08-20T08:38:58;20.80;99.90
8662;DHT22;29684;47.722;9.388;2022-08-20T08:41:48;20.70;99.90
8662;DHT22;29684;47.722;9.388;2022-08-20T08:44:35;20.50;99.90
8662;DHT22;29684;47.722;9.388;2022-08-20T08:47:30;20.60;99.90
8662;DHT22;29684;47.722;9.388;2022-08-20T08:50:22;20.90;99.90
8662;DHT22;29684;47.722;9.388;2022-08-20T08:53:07;20.80;99.90
8662;DHT22;29684;47.722;9.388;2022-08-20T08:55:53;20.80;99.90
8662;DHT22;29684;47.722;9.388;2022-08-20T08:58:41;20.80;99.90
8662;DHT22;29684;47.722;9.388;2022-08-20T09:01:27;20.70;99.90
8662;DHT22;29684;47.722;9.388;2022-08-20T09:04:14;21.00;99.90
8662;DHT22;29684;47.722;9.388;2022-08-20T09:07:01;21.00;99.90
8662;DHT22;29684;47.722;9.388;2022-08-20T09:09:45;20.90;99.90
8662;DHT22;29684;47.722;9.388;2022-08-20T09:12:30;21.10;99.90
8662;DHT22;29684;47.722;9.388;2022-08-20T09:15:14;20.80;99.90
8662;DHT22;29684;47.722;9.388;2022-08-20T09:18:00;20.80;99.90
8662;DHT22;29684;47.722;9.388;2022-08-20T09:20:44;20.80;99.90
8662;DHT22;29684;47.722;9.388;2022-08-20T09:23:28;20.90;99.90
8662;DHT22;29684;47.722;9.388;2022-08-20T09:26:13;20.70;99.90
8662;DHT22;29684;47.722;9.388;2022-08-20T09:28:57;20.90;99.90
8662;DHT22;29684;47.722;9.388;2022-08-20T09:31:41;21.20;99.90
8662;DHT22;29684;47.722;9.388;2022-08-20T09:34:25;21.20;99.90
8662;DHT22;29684;47.722;9.388;2022-08-20T09:37:10;21.30;99.90
8662;DHT22;29684;47.722;9.388;2022-08-20T09:39:54;21.40;99.90
8662;DHT22;29684;47.722;9.388;2022-08-20T09:42:39;21.50;99.90
8662;DHT22;29684;47.722;9.388;2022-08-20T09:45:23;21.70;99.90
8662;DHT22;29684;47.722;9.388;2022-08-20T09:48:07;21.80;99.90
8662;DHT22;29684;47.722;9.388;2022-08-20T09:50:52;21.50;99.90
8662;DHT22;29684;47.722;9.388;2022-08-20T09:53:36;21.60;99.90
8662;DHT22;29684;47.722;9.388;2022-08-20T09:56:20;22.00;99.90
8662;DHT22;29684;47.722;9.388;2022-08-20T09:59:05;22.10;99.90
8662;DHT22;29684;47.722;9.388;2022-08-20T10:01:49;22.30;99.90
8662;DHT22;29684;47.722;9.388;2022-08-20T10:04:33;22.10;99.90
8662;DHT22;29684;47.722;9.388;2022-08-20T10:07:17;22.20;99.90
8662;DHT22;29684;47.722;9.388;2022-08-20T10:10:03;22.10;99.90
8662;DHT22;29684;47.722;9.388;2022-08-20T10:12:47;22.30;99.90
8662;DHT22;29684;47.722;9.388;2022-08-20T10:15:31;22.40;99.90
8662;DHT22;29684;47.722;9.388;2022-08-20T10:18:16;22.50;99.90
8662;DHT22;29684;47.722;9.388;2022-08-20T10:21:00;22.60;99.90
8662;DHT22;29684;47.722;9.388;2022-08-20T10:23:44;22.70;99.90
8662;DHT22;29684;47.722;9.388;2022-08-20T10:26:29;22.50;99.90
8662;DHT22;29684;47.722;9.388;2022-08-20T10:29:13;22.40;99.90
8662;DHT22;29684;47.722;9.388;2022-08-20T10:32:09;22.30;99.90
8662;DHT22;29684;47.722;9.388;2022-08-20T10:34:54;22.20;99.90
8662;DHT22;29684;47.722;9.388;2022-08-20T10:37:39;21.80;99.90
8662;DHT22;29684;47.722;9.388;2022-08-20T10:40:23;21.60;99.90
8662;DHT22;29684;47.722;9.388;2022-08-20T10:43:07;21.80;99.90
8662;DHT22;29684;47.722;9.388;2022-08-20T10:45:51;21.70;99.90
8662;DHT22;29684;47.722;9.388;2022-08-20T10:48:35;21.50;99.90
8662;DHT22;29684;47.722;9.388;2022-08-20T10:51:20;21.50;99.90
8662;DHT22;29684;47.722;9.388;2022-08-20T10:54:04;21.50;99.90
8662;DHT22;29684;47.722;9.388;2022-08-20T10:56:48;21.80;99.90
8662;DHT22;29684;47.722;9.388;2022-08-20T10:59:37;21.80;99.90
8662;DHT22;29684;47.722;9.388;2022-08-20T11:02:22;21.70;99.90
8662;DHT22;29684;47.722;9.388;2022-08-20T11:05:07;21.60;99.90
8662;DHT22;29684;47.722;9.388;2022-08-20T11:07:51;21.70;99.90
8662;DHT22;29684;47.722;9.388;2022-08-20T11:10:38;22.10;99.90
8662;DHT22;29684;47.722;9.388;2022-08-20T11:13:23;22.40;99.90
8662;DHT22;29684;47.722;9.388;2022-08-20T11:16:07;22.50;99.90
8662;DHT22;29684;47.722;9.388;2022-08-20T11:18:51;22.70;99.90
8662;DHT22;29684;47.722;9.388;2022-08-20T11:21:35;22.70;99.90
8662;DHT22;29684;47.722;9.388;2022-08-20T11:24:19;22.70;99.90
8662;DHT22;29684;47.722;9.388;2022-08-20T11:27:05;22.90;99.90
8662;DHT22;29684;47.722;9.388;2022-08-20T11:29:51;22.50;99.90
8662;DHT22;29684;47.722;9.388;2022-08-20T11:32:36;22.50;99.90
8662;DHT22;29684;47.722;9.388;2022-08-20T11:35:20;22.10;99.90
8662;DHT22;29684;47.722;9.388;2022-08-20T11:38:07;22.20;99.90
8662;DHT22;29684;47.722;9.388;2022-08-20T11:40:51;22.40;99.90
8662;DHT22;29684;47.722;9.388;2022-08-20T11:43:36;22.80;99.90
8662;DHT22;29684;47.722;9.388;2022-08-20T11:46:20;22.70;99.90
8662;DHT22;29684;47.722;9.388;2022-08-20T11:49:04;22.70;99.90
8662;DHT22;29684;47.722;9.388;2022-08-20T11:51:49;22.30;99.90
8662;DHT22;29684;47.722;9.388;2022-08-20T11:54:33;22.30;99.90
8662;DHT22;29684;47.722;9.388;2022-08-20T11:57:29;22.70;99.90
8662;DHT22;29684;47.722;9.388;2022-08-20T12:00:20;22.80;99.90
8662;DHT22;29684;47.722;9.388;2022-08-20T12:03:07;23.10;99.90
8662;DHT22;29684;47.722;9.388;2022-08-20T12:05:51;23.10;99.90
8662;DHT22;29684;47.722;9.388;2022-08-20T12:08:36;23.10;99.90
8662;DHT22;29684;47.722;9.388;2022-08-20T12:11:20;22.70;99.90
8662;DHT22;29684;47.722;9.388;2022-08-20T12:14:04;22.70;99.90
8662;DHT22;29684;47.722;9.388;2022-08-20T12:16:48;23.10;99.90
8662;DHT22;29684;47.722;9.388;2022-08-20T12:19:33;23.30;99.90
8662;DHT22;29684;47.722;9.388;2022-08-20T12:22:19;23.70;99.90
8662;DHT22;29684;47.722;9.388;2022-08-20T12:25:05;23.60;99.90
8662;DHT22;29684;47.722;9.388;2022-08-20T12:27:50;23.20;99.90
8662;DHT22;29684;47.722;9.388;2022-08-20T12:30:34;23.20;99.90
8662;DHT22;29684;47.722;9.388;2022-08-20T12:33:19;23.50;99.90
8662;DHT22;29684;47.722;9.388;2022-08-20T12:36:03;23.50;99.90
8662;DHT22;29684;47.722;9.388;2022-08-20T12:38:47;23.20;99.90
8662;DHT22;29684;47.722;9.388;2022-08-20T12:41:31;22.80;99.90
8662;DHT22;29684;47.722;9.388;2022-08-20T12:44:15;23.30;99.90
8662;DHT22;29684;47.722;9.388;2022-08-20T12:47:13;23.60;99.90
8662;DHT22;29684;47.722;9.388;2022-08-20T12:50:03;23.60;99.90
8662;DHT22;29684;47.722;9.388;2022-08-20T12:52:49;23.40;99.90
8662;DHT22;29684;47.722;9.388;2022-08-20T12:55:34;23.50;99.90
8662;DHT22;29684;47.722;9.388;2022-08-20T12:58:18;24.10;99.90
8662;DHT22;29684;47.722;9.388;2022-08-20T13:01:02;24.20;99.90
8662;DHT22;29684;47.722;9.388;2022-08-20T13:03:46;24.80;99.90
8662;DHT22;29684;47.722;9.388;2022-08-20T13:06:31;24.70;99.90
8662;DHT22;29684;47.722;9.388;2022-08-20T13:09:15;24.40;99.90
8662;DHT22;29684;47.722;9.388;2022-08-20T13:12:00;24.30;99.90
8662;DHT22;29684;47.722;9.388;2022-08-20T13:14:44;24.10;99.90
8662;DHT22;29684;47.722;9.388;2022-08-20T13:17:28;23.50;99.90
8662;DHT22;29684;47.722;9.388;2022-08-20T13:20:15;23.40;99.90
8662;DHT22;29684;47.722;9.388;2022-08-20T13:22:59;23.20;99.90
8662;DHT22;29684;47.722;9.388;2022-08-20T13:25:43;22.90;99.90
8662;DHT22;29684;47.722;9.388;2022-08-20T13:28:27;22.80;99.90
8662;DHT22;29684;47.722;9.388;2022-08-20T13:31:11;23.10;99.90
8662;DHT22;29684;47.722;9.388;2022-08-20T13:33:55;23.10;99.90
8662;DHT22;29684;47.722;9.388;2022-08-20T13:36:39;23.00;99.90
8662;DHT22;29684;47.722;9.388;2022-08-20T13:39:23;23.40;99.90
8662;DHT22;29684;47.722;9.388;2022-08-20T13:42:08;23.10;99.90
8662;DHT22;29684;47.722;9.388;2022-08-20T13:44:53;23.10;99.90
8662;DHT22;29684;47.722;9.388;2022-08-20T13:47:39;22.90;99.90
8662;DHT22;29684;47.722;9.388;2022-08-20T13:50:23;23.10;99.90
8662;DHT22;29684;47.722;9.388;2022-08-20T13:53:08;22.80;99.90
8662;DHT22;29684;47.722;9.388;2022-08-20T13:55:52;22.50;99.90
8662;DHT22;29684;47.722;9.388;2022-08-20T13:58:36;22.40;99.90
8662;DHT22;29684;47.722;9.388;2022-08-20T14:01:20;22.40;99.90
8662;DHT22;29684;47.722;9.388;2022-08-20T14:04:04;22.50;99.90
8662;DHT22;29684;47.722;9.388;2022-08-20T14:06:48;22.60;99.90
8662;DHT22;29684;47.722;9.388;2022-08-20T14:09:32;22.90;99.90
8662;DHT22;29684;47.722;9.388;2022-08-20T14:12:17;23.50;99.90
8662;DHT22;29684;47.722;9.388;2022-08-20T14:15:01;24.10;99.90
8662;DHT22;29684;47.722;9.388;2022-08-20T14:17:50;23.80;99.90
8662;DHT22;29684;47.722;9.388;2022-08-20T14:20:35;23.60;99.90
8662;DHT22;29684;47.722;9.388;2022-08-20T14:23:19;23.60;99.90
8662;DHT22;29684;47.722;9.388;2022-08-20T14:26:03;23.30;99.90
8662;DHT22;29684;47.722;9.388;2022-08-20T14:28:48;23.20;99.90
8662;DHT22;29684;47.722;9.388;2022-08-20T14:31:32;23.00;99.90
8662;DHT22;29684;47.722;9.388;2022-08-20T14:34:16;22.80;99.90
8662;DHT22;29684;47.722;9.388;2022-08-20T14:39:56;22.70;99.90
8662;DHT22;29684;47.722;9.388;2022-08-20T14:42:41;22.50;99.90
8662;DHT22;29684;47.722;9.388;2022-08-20T14:45:25;22.30;99.90
8662;DHT22;29684;47.722;9.388;2022-08-20T14:48:10;22.10;99.90
8662;DHT22;29684;47.722;9.388;2022-08-20T14:50:55;21.90;99.90
8662;DHT22;29684;47.722;9.388;2022-08-20T14:53:39;21.80;99.90
8662;DHT22;29684;47.722;9.388;2022-08-20T14:56:23;21.60;99.90
8662;DHT22;29684;47.722;9.388;2022-08-20T14:59:07;21.30;99.90
8662;DHT22;29684;47.722;9.388;2022-08-20T15:01:52;21.00;99.90
8662;DHT22;29684;47.722;9.388;2022-08-20T15:04:37;20.90;99.90
8662;DHT22;29684;47.722;9.388;2022-08-20T15:07:27;20.90;99.90
8662;DHT22;29684;47.722;9.388;2022-08-20T15:10:16;21.00;99.90
8662;DHT22;29684;47.722;9.388;2022-08-20T15:13:01;21.10;99.90
8662;DHT22;29684;47.722;9.388;2022-08-20T15:15:46;21.10;99.90
8662;DHT22;29684;47.722;9.388;2022-08-20T15:18:30;21.10;99.90
8662;DHT22;29684;47.722;9.388;2022-08-20T15:21:14;21.10;99.90
8662;DHT22;29684;47.722;9.388;2022-08-20T15:23:58;21.10;99.90
8662;DHT22;29684;47.722;9.388;2022-08-20T15:26:42;21.20;99.90
8662;DHT22;29684;47.722;9.388;2022-08-20T15:29:26;21.20;99.90
8662;DHT22;29684;47.722;9.388;2022-08-20T15:32:11;21.20;99.90
8662;DHT22;29684;47.722;9.388;2022-08-20T15:34:55;21.10;99.90
8662;DHT22;29684;47.722;9.388;2022-08-20T15:37:42;21.10;99.90
8662;DHT22;29684;47.722;9.388;2022-08-20T15:40:29;21.00;99.90
8662;DHT22;29684;47.722;9.388;2022-08-20T15:43:13;21.00;99.90
8662;DHT22;29684;47.722;9.388;2022-08-20T15:45:59;21.00;99.90
8662;DHT22;29684;47.722;9.388;2022-08-20T15:48:45;21.00;99.90
8662;DHT22;29684;47.722;9.388;2022-08-20T15:51:45;21.10;99.90
8662;DHT22;29684;47.722;9.388;2022-08-20T15:54:30;21.00;99.90
8662;DHT22;29684;47.722;9.388;2022-08-20T15:58:16;22.10;99.90
8662;DHT22;29684;47.722;9.388;2022-08-20T16:00:51;21.20;99.90
8662;DHT22;29684;47.722;9.388;2022-08-20T16:04:12;21.50;99.90
8662;DHT22;29684;47.722;9.388;2022-08-20T16:06:57;21.90;99.90
8662;DHT22;29684;47.722;9.388;2022-08-20T16:12:37;22.00;99.90
8662;DHT22;29684;47.722;9.388;2022-08-20T16:15:32;21.90;99.90
8662;DHT22;29684;47.722;9.388;2022-08-20T16:18:25;21.10;99.90
8662;DHT22;29684;47.722;9.388;2022-08-20T16:21:12;21.60;99.90
8662;DHT22;29684;47.722;9.388;2022-08-20T16:23:59;21.50;99.90
8662;DHT22;29684;47.722;9.388;2022-08-20T16:30:07;21.20;99.90
8662;DHT22;29684;47.722;9.388;2022-08-20T16:33:00;21.30;99.90
8662;DHT22;29684;47.722;9.388;2022-08-20T16:35:53;21.70;99.90
8662;DHT22;29684;47.722;9.388;2022-08-20T16:41:43;21.60;99.90
8662;DHT22;29684;47.722;9.388;2022-08-20T16:44:41;21.10;99.90
8662;DHT22;29684;47.722;9.388;2022-08-20T16:47:30;21.00;99.90
8662;DHT22;29684;47.722;9.388;2022-08-20T16:53:02;21.00;99.90
8662;DHT22;29684;47.722;9.388;2022-08-20T16:55:46;21.00;99.90
8662;DHT22;29684;47.722;9.388;2022-08-20T16:58:30;21.00;99.90
8662;DHT22;29684;47.722;9.388;2022-08-20T17:01:15;21.20;99.90
8662;DHT22;29684;47.722;9.388;2022-08-20T17:03:59;21.30;99.90
8662;DHT22;29684;47.722;9.388;2022-08-20T17:06:45;21.30;99.90
8662;DHT22;29684;47.722;9.388;2022-08-20T17:09:40;21.10;99.90
8662;DHT22;29684;47.722;9.388;2022-08-20T17:12:27;21.00;99.90
8662;DHT22;29684;47.722;9.388;2022-08-20T17:15:27;20.90;99.90
8662;DHT22;29684;47.722;9.388;2022-08-20T17:18:27;20.90;99.90
8662;DHT22;29684;47.722;9.388;2022-08-20T17:24:08;20.70;99.90
8662;DHT22;29684;47.722;9.388;2022-08-20T17:26:57;20.70;99.90
8662;DHT22;29684;47.722;9.388;2022-08-20T17:29:52;20.60;99.90
8662;DHT22;29684;47.722;9.388;2022-08-20T17:33:00;20.70;99.90
8662;DHT22;29684;47.722;9.388;2022-08-20T17:35:54;21.70;99.90
8662;DHT22;29684;47.722;9.388;2022-08-20T17:41:33;24.10;99.90
8662;DHT22;29684;47.722;9.388;2022-08-20T17:44:22;24.40;99.90
8662;DHT22;29684;47.722;9.388;2022-08-20T17:47:13;24.00;99.90
8662;DHT22;29684;47.722;9.388;2022-08-20T17:50:03;24.20;99.90
8662;DHT22;29684;47.722;9.388;2022-08-20T17:52:55;24.00;99.90
8662;DHT22;29684;47.722;9.388;2022-08-20T17:55:40;23.10;99.90
8662;DHT22;29684;47.722;9.388;2022-08-20T17:58:37;22.60;99.90
8662;DHT22;29684;47.722;9.388;2022-08-20T18:01:24;22.00;99.90
8662;DHT22;29684;47.722;9.388;2022-08-20T18:04:09;21.60;99.90
8662;DHT22;29684;47.722;9.388;2022-08-20T18:09:56;21.20;99.90
8662;DHT22;29684;47.722;9.388;2022-08-20T18:13:11;21.00;99.90
8662;DHT22;29684;47.722;9.388;2022-08-20T18:15:55;20.90;99.90
8662;DHT22;29684;47.722;9.388;2022-08-20T18:22:05;20.50;99.90